Terminal Aerodrome Forecast
Issued by NWS Amarillo, TX

Home | Current Version | Previous Version | Text Only | Print | Product List | Glossary On
Versions: 1 2 3 4 5 6 7 8 9 10 11 12 13 14 15 16 17 18 19 20 21 22 23 24 25 26 27 28 29
000
FTUS44 KAMA 200800 AAA
TAFAMA
TAF AMD
KAMA 200810Z 2008/2106 16010KT P6SM BKN017
     FM200900 18008KT 3SM BR SCT006 OVC010
     FM201600 20008KT P6SM BKN020
     FM201900 15010KT P6SM BKN050=

USA.gov is the U.S. government's official web portal to all federal, state and local government web resources and services.